sim
Sign-in with your pilot id or email,
or register
Callsign
Passwort

Schedule Details

Flight Number: RYR8806 (2)
Departure: Milan Bergamo Il Caravaggio International Airport (LIME) at 08:40
Arrival: Fuerteventura Airport (GCFV) at 12:55
Route: Ryanair Passenger Schedule. Enter filed route here before submitting Pirep.

Weather Information
Getting current METAR information for LIME 212150Z 11003KT 9999 SCT110 14/04 Q1018 NOSIG
Getting current METAR information for GCFV 212130Z 34010KT 300V360 9999 SCT029 19/13 Q1015

Schedule Frequency

Route Map